Youngstown, OH (44501)

8:04 AM EDT on April 19, 2015 (GMT -0400)
West Side | | Change Station
CLOSE
Current Station
Personal Weather Station
Location: Youngstown, OH
Elevation: 1010 ft
Nearby Weather Stations

Elev 1010 ft 41.09 °N, 80.70 °W | Updated 17 seconds ago

Partly Cloudy
Partly Cloudy
52.3 °F
Feels Like 52.3 °F
N
5.4
Wind Variable Wind from SE
Gusts 5.4 mph

Today
High -- | Low -- °F
--% Chance of Precip.
Yesterday
High -- | Low -- °F
Precip. -- in
6:37 AM 8:06 PM
New Moon, 1% visible
Pressure 30.06 in
Visibility 10.0 miles
Clouds Scattered Clouds 6500 ft
Scattered Clouds 12000 ft
Mostly Cloudy 21000 ft
Dew Point 30 °F
Humidity 42%
Rainfall 0.00 in
Snow Depth Not available.
UV 0 out of 12
Pollen 9.40 out of 12
Air Quality Not available.
Flu Activity Regional
METAR KYNG 191151Z 10014KT 10SM SCT065 SCT120 BKN210 11/M02 A3005 RMK AO2 SLP177 T01061017 10106 20078 56001

More Conditions Fewer Conditions

Pressure 30.06 in
Visibility 10.0 miles
Clouds Scattered Clouds 6500 ft
Scattered Clouds 12000 ft
Mostly Cloudy 21000 ft
Dew Point 30 °F
Humidity 42%
Rainfall 0.00 in
Snow Depth Not available.
UV 0 out of 12
Pollen 9.40 out of 12
Air Quality Not available.
Flu Activity Regional
METAR KYNG 191151Z 10014KT 10SM SCT065 SCT120 BKN210 11/M02 A3005 RMK AO2 SLP177 T01061017 10106 20078 56001

More Conditions Fewer Conditions

10-Day Weather Forecast

Almanac

Astronomy

Apr. 19, 2015 Rise Set
Actual Time
Civil Twilight
Nautical Twilight
Astronomical Twilight
Moon
Length of Visible Light
Length of Day
Tomorrow will be .
, % of the Moon is Illuminated

Today's Extremes

State Highs State Lows

Community

WunderPhotos

Upload Photos

1,814,760 photos uploaded!

WunderBlogs® & News

Nearby

Air Quality

  Air Quality AQ Index Pollutant
Not available.

Snow Depth

Station Depth Elevation

Earthquake Activity

City Distance Mag. Time & Date
Minimum magnitude displayed is 2.5.

Coastal Water Temperatures

Place Temperature

Stations

Nearby Weather Stations

Station Location Temp. Windchill Dew Point Humidity Wind Precip. Elev Updated Type